Overview Statistics Trail Chart Weather Telemetry Raw packets
 

This is the latest recevied packets stored in our database for station/object R2AKT-13. If no packets are shown the sender has not sent any packets the latest 24 hours.

If you compare the raw packets with similar data from other websites it may differ (especially the path), the reason is that we are not collecting packets from the same APRS-IS servers. Each APRS-IS server performes duplicate filtering, and which packet that is considered to be a duplicate may differ depending on which APRS-IS server you receive your data from.

<< 1 2 3 4 >>

1788717892: R2AKT-13>APRX29,TCPIP*,qAS,R2AKT-3:!5556.34N/03758.45E_c198s000g002t053r...p...P...h80b09823Weather in Shchyolkovo: Temperature => 11.9 C; Wind => 0.1 m/s, SSW; Gust => 0.8 m/s; Humidity => 80 %; Pressure => 737 mmHg

1788717336: R2AKT-13>APRX29,TCPIP*,qAS,R2AKT-3:!5556.34N/03758.45E_c242s001g003t054r...p...P...h79b09822Weather in Shchyolkovo: Temperature => 12.2 C; Wind => 0.4 m/s, SWtW; Gust => 1.2 m/s; Humidity => 79 %; Pressure => 737 mmHg

1788716831: R2AKT-13>APRX29,TCPIP*,qAS,R2AKT-3:!5556.34N/03758.45E_c177s001g002t054r...p...P...h78b09822Weather in Shchyolkovo: Temperature => 12.2 C; Wind => 0.3 m/s, S; Gust => 0.8 m/s; Humidity => 78 %; Pressure => 737 mmHg

1788716296: R2AKT-13>APRX29,TCPIP*,qAS,R2AKT-3:!5556.34N/03758.45E_c168s001g002t054r...p...P...h78b09821Weather in Shchyolkovo: Temperature => 12.4 C; Wind => 0.4 m/s, StE; Gust => 1.0 m/s; Humidity => 78 %; Pressure => 737 mmHg

1788715806: R2AKT-13>APRX29,TCPIP*,qAS,R2AKT-3:!5556.34N/03758.45E_c211s001g003t055r...p...P...h81b09821Weather in Shchyolkovo: Temperature => 12.7 C; Wind => 0.4 m/s, SWtS; Gust => 1.2 m/s; Humidity => 81 %; Pressure => 737 mmHg

1788715251: R2AKT-13>APRX29,TCPIP*,qAS,R2AKT-3:!5556.34N/03758.45E_c128s000g001t055r...p...P...h82b09821Weather in Shchyolkovo: Temperature => 12.8 C; Wind => 0.0 m/s, SEtE; Gust => 0.2 m/s; Humidity => 82 %; Pressure => 737 mmHg

1788714681: R2AKT-13>APRX29,TCPIP*,qAS,R2AKT-3:!5556.34N/03758.45E_c220s001g003t055r...p...P...h83b09821Weather in Shchyolkovo: Temperature => 12.8 C; Wind => 0.4 m/s, SW; Gust => 1.5 m/s; Humidity => 83 %; Pressure => 737 mmHg

1788714179: R2AKT-13>APRX29,TCPIP*,qAS,R2AKT-3:!5556.34N/03758.45E_c177s001g003t055r...p...P...h82b09820Weather in Shchyolkovo: Temperature => 13.0 C; Wind => 0.6 m/s, S; Gust => 1.2 m/s; Humidity => 82 %; Pressure => 737 mmHg

1788713656: R2AKT-13>APRX29,TCPIP*,qAS,R2AKT-3:!5556.34N/03758.45E_c186s000g002t056r...p...P...h80b09819Weather in Shchyolkovo: Temperature => 13.5 C; Wind => 0.1 m/s, StW; Gust => 0.8 m/s; Humidity => 80 %; Pressure => 736 mmHg

1788713063: R2AKT-13>APRX29,TCPIP*,qAS,R2AKT-3:!5556.34N/03758.45E_c156s000g002t057r...p...P...h79b09818Weather in Shchyolkovo: Temperature => 13.7 C; Wind => 0.1 m/s, SSE; Gust => 0.8 m/s; Humidity => 79 %; Pressure => 736 mmHg

1788712586: R2AKT-13>APRX29,TCPIP*,qAS,R2AKT-3:!5556.34N/03758.45E_c199s000g000t057r...p...P...h80b09816Weather in Shchyolkovo: Temperature => 13.6 C; Wind => 0.0 m/s, SSW; Gust => 0.0 m/s; Humidity => 80 %; Pressure => 736 mmHg

1788712101: R2AKT-13>APRX29,TCPIP*,qAS,R2AKT-3:!5556.34N/03758.45E_c118s000g001t057r...p...P...h79b09815Weather in Shchyolkovo: Temperature => 13.7 C; Wind => 0.0 m/s, SEtE; Gust => 0.5 m/s; Humidity => 79 %; Pressure => 736 mmHg

1788711531: R2AKT-13>APRX29,TCPIP*,qAS,R2AKT-3:!5556.34N/03758.45E_c238s000g001t057r...p...P...h79b09814Weather in Shchyolkovo: Temperature => 13.7 C; Wind => 0.0 m/s, SWtW; Gust => 0.2 m/s; Humidity => 79 %; Pressure => 736 mmHg

1788711038: R2AKT-13>APRX29,TCPIP*,qAS,R2AKT-3:!5556.34N/03758.45E_c191s000g001t057r...p...P...h79b09813Weather in Shchyolkovo: Temperature => 13.8 C; Wind => 0.0 m/s, StW; Gust => 0.5 m/s; Humidity => 79 %; Pressure => 736 mmHg

1788710556: R2AKT-13>APRX29,TCPIP*,qAS,R2AKT-3:!5556.34N/03758.45E_c253s000g002t057r...p...P...h79b09811Weather in Shchyolkovo: Temperature => 13.9 C; Wind => 0.2 m/s, WSW; Gust => 0.8 m/s; Humidity => 79 %; Pressure => 736 mmHg

1788709971: R2AKT-13>APRX29,TCPIP*,qAS,R2AKT-3:!5556.34N/03758.45E_c202s000g002t057r...p...P...h79b09810Weather in Shchyolkovo: Temperature => 13.9 C; Wind => 0.2 m/s, SSW; Gust => 1.0 m/s; Humidity => 79 %; Pressure => 736 mmHg

1788709491: R2AKT-13>APRX29,TCPIP*,qAS,R2AKT-3:!5556.34N/03758.45E_c114s000g000t057r...p...P...h79b09809Weather in Shchyolkovo: Temperature => 13.6 C; Wind => 0.0 m/s, ESE; Gust => 0.0 m/s; Humidity => 79 %; Pressure => 736 mmHg

1788708916: R2AKT-13>APRX29,TCPIP*,qAS,R2AKT-3:!5556.34N/03758.45E_c084s000g000t057r...p...P...h79b09808Weather in Shchyolkovo: Temperature => 13.8 C; Wind => 0.0 m/s, EtN; Gust => 0.0 m/s; Humidity => 79 %; Pressure => 736 mmHg

1788708331: R2AKT-13>APRX29,TCPIP*,qAS,R2AKT-3:!5556.34N/03758.45E_c097s000g001t058r...p...P...h76b09806Weather in Shchyolkovo: Temperature => 14.4 C; Wind => 0.1 m/s, EtS; Gust => 0.2 m/s; Humidity => 76 %; Pressure => 736 mmHg

1788707731: R2AKT-13>APRX29,TCPIP*,qAS,R2AKT-3:!5556.34N/03758.45E_c122s000g001t059r...p...P...h73b09806Weather in Shchyolkovo: Temperature => 15.1 C; Wind => 0.1 m/s, SEtE; Gust => 0.5 m/s; Humidity => 73 %; Pressure => 736 mmHg

1788707191: R2AKT-13>APRX29,TCPIP*,qAS,R2AKT-3:!5556.34N/03758.45E_c170s000g002t058r...p...P...h77b09807Weather in Shchyolkovo: Temperature => 14.3 C; Wind => 0.2 m/s, StE; Gust => 1.0 m/s; Humidity => 77 %; Pressure => 736 mmHg

1788706601: R2AKT-13>APRX29,TCPIP*,qAS,R2AKT-3:!5556.34N/03758.45E_c159s000g001t058r...p...P...h76b09806Weather in Shchyolkovo: Temperature => 14.6 C; Wind => 0.1 m/s, SSE; Gust => 0.5 m/s; Humidity => 76 %; Pressure => 735 mmHg

1788706072: R2AKT-13>APRX29,TCPIP*,qAS,R2AKT-3:!5556.34N/03758.45E_c098s000g001t060r...p...P...h72b09805Weather in Shchyolkovo: Temperature => 15.4 C; Wind => 0.1 m/s, EtS; Gust => 0.2 m/s; Humidity => 72 %; Pressure => 735 mmHg

1788705491: R2AKT-13>APRX29,TCPIP*,qAS,R2AKT-3:!5556.34N/03758.45E_c060s000g000t061r...p...P...h71b09806Weather in Shchyolkovo: Temperature => 15.9 C; Wind => 0.0 m/s, NEtE; Gust => 0.0 m/s; Humidity => 71 %; Pressure => 735 mmHg

1788705001: R2AKT-13>APRX29,TCPIP*,qAS,R2AKT-3:!5556.34N/03758.45E_c184s000g002t062r...p...P...h68b09804Weather in Shchyolkovo: Temperature => 16.6 C; Wind => 0.2 m/s, S; Gust => 0.8 m/s; Humidity => 68 %; Pressure => 735 mmHg